Time;durP1;ratioP1;P1;durP2;ratioP2;P2;SDS_P1;SDS_P2;PMS_P1;PMS_P2;Temp;Humidity;BMP_temperature;BMP_pressure;BME280_temperature;BME280_humidity;BME280_pressure;Samples;Min_cycle;Max_cycle;Signal;HPM_P1;HPM_P2
2022/01/31 00:01:55;;;;;;;21.95;5.20;;;;;;;0.88;76.02;98801.13;4170479;28;20067;-71
2022/01/31 00:03:55;;;;;;;10.93;3.85;;;;;;;0.91;75.13;98784.13;4170555;28;20380;-71
2022/01/31 00:05:56;;;;;;;11.90;3.92;;;;;;;0.90;74.95;98769.72;4170750;28;20515;-71
2022/01/31 00:07:57;;;;;;;17.02;4.57;;;;;;;0.92;75.61;98766.72;4169199;28;20533;-71
2022/01/31 00:09:57;;;;;;;13.52;4.32;;;;;;;0.94;74.37;98768.00;4170200;28;20489;-71
2022/01/31 00:12:00;;;;;;;13.77;4.60;;;;;;;0.94;75.08;98768.00;4170295;28;20372;-72
2022/01/31 00:14:10;;;;;;;16.77;4.97;;;;;;;1.00;74.11;98760.53;4170914;28;20115;-71
2022/01/31 00:16:16;;;;;;;15.30;4.15;;;;;;;1.02;74.18;98758.28;4170440;28;20448;-72
2022/01/31 00:18:16;;;;;;;18.40;4.85;;;;;;;1.00;74.20;98746.91;4169769;28;20164;-71
2022/01/31 00:20:16;;;;;;;12.50;4.20;;;;;;;1.00;74.94;98725.91;4170076;28;20068;-71
2022/01/31 00:22:17;;;;;;;17.42;5.75;;;;;;;0.97;75.49;98712.09;4168895;28;20120;-71
2022/01/31 00:24:17;;;;;;;14.18;4.13;;;;;;;0.96;75.81;98705.03;4170571;28;20264;-71
2022/01/31 00:26:17;;;;;;;14.98;5.07;;;;;;;0.95;75.40;98697.97;4169986;28;20115;-71
2022/01/31 00:28:18;;;;;;;11.95;3.58;;;;;;;0.92;75.99;98699.41;4169507;28;20059;-71
2022/01/31 00:30:18;;;;;;;13.85;4.03;;;;;;;0.89;75.72;98685.59;4170178;28;20029;-71
2022/01/31 00:32:19;;;;;;;15.20;5.32;;;;;;;0.87;76.00;98676.91;4170387;28;20427;-71
2022/01/31 00:34:19;;;;;;;12.45;4.43;;;;;;;0.87;76.61;98664.09;4169682;28;20028;-71
2022/01/31 00:36:20;;;;;;;16.33;4.63;;;;;;;0.86;75.39;98654.31;4169704;28;20095;-71
2022/01/31 00:38:20;;;;;;;19.20;4.93;;;;;;;0.85;75.68;98641.81;4169515;28;20656;-71
2022/01/31 00:40:21;;;;;;;16.70;4.43;;;;;;;0.85;75.46;98625.47;4169710;28;20120;-71
2022/01/31 00:42:22;;;;;;;22.98;4.45;;;;;;;0.91;75.68;98610.63;4169970;28;20039;-71
2022/01/31 00:44:28;;;;;;;16.10;4.57;;;;;;;0.90;75.39;98619.88;4169776;28;20628;-71
2022/01/31 00:46:38;;;;;;;18.60;5.10;;;;;;;0.90;75.81;98614.44;4170095;28;20447;-71
2022/01/31 00:48:45;;;;;;;23.70;5.13;;;;;;;0.91;75.50;98599.72;4169665;28;20187;-71
2022/01/31 00:50:47;;;;;;;19.65;5.65;;;;;;;0.93;75.83;98593.97;4169714;28;20350;-71
2022/01/31 00:52:47;;;;;;;10.20;4.90;;;;;;;0.94;76.22;98577.28;4169363;28;21150;-71
2022/01/31 00:54:48;;;;;;;24.33;5.43;;;;;;;0.94;76.46;98560.94;4168564;28;20160;-71
2022/01/31 00:56:50;;;;;;;16.23;5.03;;;;;;;0.97;75.87;98551.34;4167851;28;20491;-71
2022/01/31 00:58:50;;;;;;;22.80;5.00;;;;;;;1.03;74.89;98540.00;4169937;28;20056;-71
2022/01/31 01:00:50;;;;;;;17.30;4.18;;;;;;;1.04;77.21;98517.09;4170207;28;20513;-71
2022/01/31 01:02:50;;;;;;;9.85;4.80;;;;;;;1.08;76.35;98523.53;4169122;28;20029;-71
2022/01/31 01:04:51;;;;;;;17.77;3.55;;;;;;;1.10;75.44;98531.38;4169764;28;20032;-72
2022/01/31 01:06:51;;;;;;;14.15;4.40;;;;;;;1.07;75.70;98521.88;4166268;28;20879;-72
2022/01/31 01:08:52;;;;;;;21.58;5.07;;;;;;;1.07;75.53;98521.88;4169552;28;20136;-72
2022/01/31 01:10:52;;;;;;;14.20;4.80;;;;;;;1.06;74.99;98522.22;4169926;28;20531;-72
2022/01/31 01:12:54;;;;;;;21.38;4.50;;;;;;;1.03;75.39;98504.56;4170213;28;20185;-72
2022/01/31 01:14:54;;;;;;;15.18;4.60;;;;;;;1.05;74.89;98512.44;4169515;28;20232;-71
2022/01/31 01:16:55;;;;;;;19.40;5.30;;;;;;;1.00;75.55;98509.88;4169112;28;20064;-72
2022/01/31 01:18:55;;;;;;;15.00;3.95;;;;;;;1.00;76.44;98510.66;4169646;28;20036;-72
2022/01/31 01:20:55;;;;;;;19.63;4.38;;;;;;;1.01;76.15;98508.75;4169735;28;20033;-72
2022/01/31 01:22:56;;;;;;;17.48;4.97;;;;;;;1.01;75.24;98508.75;4169455;28;20584;-71
2022/01/31 01:24:56;;;;;;;16.42;5.22;;;;;;;1.01;75.67;98506.81;4169643;28;20056;-71
2022/01/31 01:26:57;;;;;;;18.50;5.35;;;;;;;0.99;76.33;98498.13;4169332;28;20479;-71
2022/01/31 01:28:58;;;;;;;18.33;4.70;;;;;;;0.99;76.70;98484.50;4169405;28;20102;-72
2022/01/31 01:30:58;;;;;;;14.73;4.45;;;;;;;1.01;76.90;98479.56;4169755;28;20420;-71
2022/01/31 01:33:09;;;;;;;10.85;4.15;;;;;;;1.02;76.80;98464.84;4169933;28;20068;-71
2022/01/31 01:35:09;;;;;;;12.55;4.35;;;;;;;1.03;77.44;98452.00;4169123;28;20500;-71
2022/01/31 01:37:10;;;;;;;16.27;4.03;;;;;;;1.02;76.50;98432.13;4168891;28;20147;-71
2022/01/31 01:39:11;;;;;;;21.60;4.25;;;;;;;1.00;76.95;98420.75;4168334;28;20119;-71
2022/01/31 01:41:12;;;;;;;11.88;4.13;;;;;;;1.01;76.76;98411.47;4169641;28;20105;-71
2022/01/31 01:43:14;;;;;;;10.90;3.65;;;;;;;1.01;77.63;98403.28;4169495;28;20517;-71
2022/01/31 01:45:15;;;;;;;13.75;3.90;;;;;;;0.97;77.50;98396.84;4169726;28;20045;-71
2022/01/31 01:47:20;;;;;;;15.00;4.63;;;;;;;0.98;77.49;98393.00;4168602;28;20028;-71
2022/01/31 01:49:20;;;;;;;14.43;3.60;;;;;;;0.95;76.67;98381.94;4169150;28;20035;-71
2022/01/31 01:51:21;;;;;;;12.32;3.22;;;;;;;0.90;77.39;98374.72;4169105;28;20392;-72
2022/01/31 01:53:22;;;;;;;15.60;5.30;;;;;;;0.93;78.13;98370.56;4169642;28;20029;-72
2022/01/31 01:55:23;;;;;;;16.75;4.43;;;;;;;0.95;77.32;98374.56;4168993;28;20073;-72
2022/01/31 01:57:24;;;;;;;10.32;3.60;;;;;;;0.94;77.40;98369.47;4168474;28;20045;-71
2022/01/31 01:59:25;;;;;;;16.45;4.05;;;;;;;0.92;77.06;98374.44;4169367;28;20037;-71
2022/01/31 02:01:25;;;;;;;11.30;4.45;;;;;;;0.90;77.26;98382.09;4169523;28;20039;-71
2022/01/31 02:03:30;;;;;;;19.15;4.38;;;;;;;0.81;77.05;98361.06;4169233;28;20120;-71
2022/01/31 02:05:30;;;;;;;20.33;4.40;;;;;;;0.86;76.91;98370.25;4168848;28;20037;-71
2022/01/31 02:07:30;;;;;;;12.38;3.75;;;;;;;0.82;77.29;98350.97;4168625;28;20424;-71
2022/01/31 02:09:39;;;;;;;14.32;3.97;;;;;;;0.86;77.18;98349.25;4168957;28;20032;-71
2022/01/31 02:11:40;;;;;;;9.00;3.15;;;;;;;0.84;77.33;98352.28;4168758;28;20196;-71
2022/01/31 02:13:40;;;;;;;18.23;4.63;;;;;;;0.84;77.33;98348.78;4169355;28;20094;-71
2022/01/31 02:15:43;;;;;;;12.65;3.80;;;;;;;0.84;78.17;98327.78;4169016;28;20934;-71
2022/01/31 02:17:43;;;;;;;21.63;4.45;;;;;;;0.83;78.29;98309.84;4167705;28;20037;-71
2022/01/31 02:19:44;;;;;;;12.88;4.35;;;;;;;0.84;79.33;98283.41;4171503;28;20029;-71
2022/01/31 02:21:48;;;;;;;18.63;4.78;;;;;;;0.90;79.22;98270.41;4172423;28;20048;-71
2022/01/31 02:23:49;;;;;;;11.05;3.17;;;;;;;0.89;78.25;98266.88;4172166;28;20047;-71
2022/01/31 02:25:58;;;;;;;13.95;3.92;;;;;;;0.93;78.58;98239.81;4172324;28;20564;-71
2022/01/31 02:27:59;;;;;;;13.70;4.22;;;;;;;0.96;78.18;98258.25;4171184;28;20032;-71
2022/01/31 02:29:59;;;;;;;8.82;3.60;;;;;;;0.95;77.90;98253.91;4172187;28;20032;-71
2022/01/31 02:31:59;;;;;;;22.27;4.65;;;;;;;1.00;75.98;98256.50;4171828;28;20063;-71
2022/01/31 02:34:00;;;;;;;18.50;4.30;;;;;;;0.99;76.68;98242.03;4171390;28;20529;-71
2022/01/31 02:36:04;;;;;;;11.60;3.50;;;;;;;1.01;77.13;98236.28;4172100;28;20203;-71
2022/01/31 02:38:04;;;;;;;15.95;4.40;;;;;;;0.99;77.32;98222.97;4170034;28;20512;-71
2022/01/31 02:40:05;;;;;;;11.93;4.00;;;;;;;0.99;77.35;98219.44;4171538;28;20037;-71
2022/01/31 02:42:06;;;;;;;16.58;4.20;;;;;;;0.94;76.32;98214.19;4171862;28;20095;-71
2022/01/31 02:44:13;;;;;;;13.50;3.47;;;;;;;0.97;77.96;98214.31;4172094;28;20473;-71
2022/01/31 02:46:14;;;;;;;15.27;4.05;;;;;;;0.95;77.38;98196.72;4172084;28;20120;-72
2022/01/31 02:48:17;;;;;;;15.18;4.07;;;;;;;0.95;77.40;98191.25;4170486;28;20457;-72
2022/01/31 02:50:19;;;;;;;13.90;4.28;;;;;;;0.93;77.61;98196.25;4171497;28;20064;-72
2022/01/31 02:52:19;;;;;;;13.57;4.22;;;;;;;0.92;76.84;98200.09;4171901;28;20505;-72
2022/01/31 02:54:19;;;;;;;12.65;3.45;;;;;;;0.90;76.83;98184.03;4172039;28;20818;-72
2022/01/31 02:56:20;;;;;;;9.02;3.20;;;;;;;0.88;76.79;98169.94;4171618;28;20028;-72
2022/01/31 02:58:21;;;;;;;19.13;4.72;;;;;;;0.92;77.80;98164.69;4169567;28;20037;-72
2022/01/31 03:00:22;;;;;;;14.57;3.90;;;;;;;0.93;76.79;98172.53;4172167;28;20227;-71
2022/01/31 03:02:23;;;;;;;13.18;3.65;;;;;;;0.89;76.87;98166.09;4171328;28;20490;-71
2022/01/31 03:04:23;;;;;;;13.10;3.53;;;;;;;0.87;76.69;98159.38;4171343;28;20037;-71
2022/01/31 03:06:23;;;;;;;12.68;4.00;;;;;;;0.91;77.39;98146.72;4171344;28;20079;-71
2022/01/31 03:08:24;;;;;;;11.48;3.55;;;;;;;0.90;76.38;98142.38;4171206;28;20061;-71
2022/01/31 03:10:24;;;;;;;10.60;3.65;;;;;;;0.96;75.51;98152.00;4171191;28;20116;-71
2022/01/31 03:12:24;;;;;;;11.65;3.83;;;;;;;0.95;76.42;98136.78;4171572;28;20031;-71
2022/01/31 03:14:25;;;;;;;10.80;3.65;;;;;;;0.97;76.40;98129.88;4171449;28;20033;-71
2022/01/31 03:16:25;;;;;;;14.18;3.35;;;;;;;0.96;75.79;98138.38;4170593;28;20040;-71
2022/01/31 03:18:27;;;;;;;10.90;3.95;;;;;;;0.98;75.73;98120.56;4170754;28;20122;-71
2022/01/31 03:20:27;;;;;;;18.55;4.18;;;;;;;1.00;75.39;98087.59;4171261;28;20102;-71
2022/01/31 03:22:30;;;;;;;10.38;4.28;;;;;;;1.01;76.73;98078.28;4171725;28;20036;-71
2022/01/31 03:24:30;;;;;;;12.48;4.72;;;;;;;0.96;76.24;98056.66;4170878;28;20124;-71
2022/01/31 03:26:31;;;;;;;13.52;4.15;;;;;;;0.98;75.72;98057.91;4170763;28;20068;-71
2022/01/31 03:28:31;;;;;;;16.55;4.20;;;;;;;0.97;76.17;98050.88;4171152;28;20315;-71
2022/01/31 03:30:31;;;;;;;12.10;3.83;;;;;;;0.98;75.83;98051.66;4170053;28;20082;-71
2022/01/31 03:32:32;;;;;;;10.43;3.88;;;;;;;0.97;76.02;98050.88;4170936;28;20090;-71
2022/01/31 03:34:32;;;;;;;14.27;3.78;;;;;;;0.92;76.21;98040.19;4171110;28;20048;-71
2022/01/31 03:36:33;;;;;;;18.05;5.18;;;;;;;0.96;76.15;98038.38;4170330;28;20861;-71
2022/01/31 03:38:35;;;;;;;12.40;4.00;;;;;;;0.97;76.24;98031.81;4170689;28;20049;-71
2022/01/31 03:40:35;;;;;;;11.88;4.30;;;;;;;0.97;76.13;98020.13;4170996;28;20086;-71
2022/01/31 03:42:37;;;;;;;16.63;4.07;;;;;;;0.94;76.38;98009.88;4171101;28;20443;-71
2022/01/31 03:44:37;;;;;;;8.97;3.30;;;;;;;0.94;76.88;98004.44;4170885;28;20348;-71
2022/01/31 03:46:38;;;;;;;10.98;3.80;;;;;;;0.95;76.75;98001.38;4169645;28;20032;-71
2022/01/31 03:48:41;;;;;;;11.50;3.60;;;;;;;0.96;77.04;97985.84;4170655;28;20457;-71
2022/01/31 03:50:41;;;;;;;13.82;4.03;;;;;;;0.97;76.78;97985.50;4171085;28;20063;-71
2022/01/31 03:52:42;;;;;;;13.23;3.55;;;;;;;1.03;77.11;97975.22;4170748;28;20123;-71
2022/01/31 03:54:43;;;;;;;12.57;3.60;;;;;;;0.97;76.36;97971.88;4170828;28;20112;-71
2022/01/31 03:56:43;;;;;;;14.13;3.55;;;;;;;1.01;76.11;97969.31;4169968;28;20043;-71
2022/01/31 03:58:44;;;;;;;16.35;4.55;;;;;;;0.98;76.25;97957.13;4170667;28;20116;-71
2022/01/31 04:00:44;;;;;;;13.43;4.18;;;;;;;0.98;76.50;97954.41;4170584;28;20031;-71
2022/01/31 04:02:45;;;;;;;12.10;4.03;;;;;;;0.96;76.43;97934.88;4170535;28;20501;-71
2022/01/31 04:04:45;;;;;;;17.20;3.85;;;;;;;0.99;76.42;97936.13;4170806;28;20118;-71
2022/01/31 04:06:45;;;;;;;11.70;4.05;;;;;;;1.01;75.70;97921.06;4169653;28;20374;-71
2022/01/31 04:08:46;;;;;;;8.18;3.33;;;;;;;1.01;75.88;97914.84;4170596;28;20029;-71
2022/01/31 04:10:46;;;;;;;12.18;3.17;;;;;;;1.04;76.34;97912.22;4170332;28;20504;-71
2022/01/31 04:12:46;;;;;;;9.75;3.40;;;;;;;1.04;75.74;97920.41;4170383;28;20064;-71
2022/01/31 04:14:47;;;;;;;9.70;3.00;;;;;;;1.09;76.00;97914.78;4170172;28;20180;-71
2022/01/31 04:16:47;;;;;;;12.27;3.63;;;;;;;1.06;76.23;97918.16;4170069;28;20353;-72
2022/01/31 04:18:47;;;;;;;14.32;3.42;;;;;;;1.05;76.05;97913.03;4170252;28;20122;-71
2022/01/31 04:20:48;;;;;;;10.13;4.15;;;;;;;1.06;75.68;97896.34;4170377;28;20249;-71
2022/01/31 04:22:55;;;;;;;10.95;4.32;;;;;;;1.08;75.46;97887.88;4170371;28;20195;-71
2022/01/31 04:24:59;;;;;;;9.07;3.35;;;;;;;1.03;75.62;97867.06;4170297;28;20433;-71
2022/01/31 04:27:05;;;;;;;9.23;2.92;;;;;;;1.03;76.47;97853.44;4169575;28;20033;-71
2022/01/31 04:29:08;;;;;;;11.90;3.13;;;;;;;0.97;76.69;97846.56;4170171;28;20557;-71
2022/01/31 04:31:36;;;;;;;8.27;3.08;;;;;;;1.05;75.84;97836.75;4168697;28;20071;-71
2022/01/31 04:33:35;;;;;;;8.05;3.50;;;;;;;1.09;76.68;97829.53;4169186;28;20067;-71
2022/01/31 04:35:36;;;;;;;10.05;3.13;;;;;;;1.10;75.51;97821.00;4169422;28;20700;-71
2022/01/31 04:37:36;;;;;;;11.02;3.70;;;;;;;1.10;75.90;97806.59;4167771;28;20580;-71
2022/01/31 04:39:37;;;;;;;11.65;3.65;;;;;;;1.10;75.55;97801.94;4167830;28;20108;-71
2022/01/31 04:41:37;;;;;;;6.72;2.85;;;;;;;1.15;76.43;97797.41;4167001;28;20466;-71
2022/01/31 04:43:38;;;;;;;7.32;3.03;;;;;;;1.14;76.63;97788.44;4166877;28;20041;-71
2022/01/31 04:45:46;;;;;;;10.90;3.92;;;;;;;1.10;75.82;97768.44;4168309;28;20861;-71
2022/01/31 04:47:46;;;;;;;13.35;3.20;;;;;;;1.16;76.64;97769.84;4167686;28;20036;-71
2022/01/31 04:49:48;;;;;;;13.50;3.63;;;;;;;1.13;75.99;97776.75;4169248;28;20438;-71
2022/01/31 04:51:48;;;;;;;11.60;3.15;;;;;;;1.15;77.92;97759.25;4166985;28;20029;-71
2022/01/31 04:53:49;;;;;;;20.20;3.60;;;;;;;1.23;77.22;97751.00;4169122;28;20048;-71
2022/01/31 04:55:50;;;;;;;10.88;3.08;;;;;;;1.23;75.72;97734.66;4166054;28;20069;-72
2022/01/31 04:57:50;;;;;;;13.45;3.55;;;;;;;1.23;76.27;97737.38;4167372;28;20047;-72
2022/01/31 04:59:51;;;;;;;13.05;3.63;;;;;;;1.20;75.26;97727.16;4168005;28;20041;-72
2022/01/31 05:01:52;;;;;;;12.02;3.40;;;;;;;1.19;75.33;97722.84;4168265;28;20384;-72
2022/01/31 05:03:52;;;;;;;10.88;3.60;;;;;;;1.21;77.43;97720.59;4168266;28;20060;-72
2022/01/31 05:05:53;;;;;;;9.73;3.40;;;;;;;1.14;75.61;97709.41;4168604;28;20041;-72
2022/01/31 05:07:55;;;;;;;7.65;3.30;;;;;;;1.20;76.23;97707.31;4167789;28;20033;-72
2022/01/31 05:09:55;;;;;;;13.60;3.65;;;;;;;1.13;75.33;97695.00;4169042;28;20056;-72
2022/01/31 05:11:55;;;;;;;11.93;3.70;;;;;;;1.13;75.67;97699.66;4169475;28;20122;-71
2022/01/31 05:13:56;;;;;;;9.32;3.50;;;;;;;1.09;75.38;97685.94;4169596;28;20044;-71
2022/01/31 05:15:56;;;;;;;11.70;3.33;;;;;;;1.04;76.27;97680.69;4170583;28;21228;-71
2022/01/31 05:17:56;;;;;;;15.73;4.05;;;;;;;1.06;76.01;97669.44;4168866;28;20094;-71
2022/01/31 05:19:57;;;;;;;8.77;3.30;;;;;;;1.05;76.02;97665.13;4170047;28;20039;-71
2022/01/31 05:21:57;;;;;;;11.38;3.30;;;;;;;1.05;77.69;97656.94;4170362;28;20033;-71
2022/01/31 05:23:58;;;;;;;8.00;3.17;;;;;;;1.04;77.11;97639.81;4169899;28;20124;-71
2022/01/31 05:25:58;;;;;;;6.63;3.10;;;;;;;1.11;78.83;97640.06;4170189;28;20520;-71
2022/01/31 05:27:58;;;;;;;6.80;2.70;;;;;;;1.12;78.03;97633.47;4169002;28;20060;-71
2022/01/31 05:29:59;;;;;;;8.18;3.38;;;;;;;1.19;78.75;97622.03;4170298;28;20226;-71
2022/01/31 05:31:59;;;;;;;7.88;3.45;;;;;;;1.21;78.61;97599.88;4170386;28;20067;-71
2022/01/31 05:34:00;;;;;;;11.85;3.67;;;;;;;1.27;78.43;97593.91;4169823;28;20214;-71
2022/01/31 05:36:00;;;;;;;5.32;2.63;;;;;;;1.28;77.49;97591.97;4170477;28;20064;-71
2022/01/31 05:38:00;;;;;;;12.75;3.35;;;;;;;1.27;76.93;97588.44;4169130;28;20369;-71
2022/01/31 05:40:03;;;;;;;10.50;3.33;;;;;;;1.27;77.88;97582.19;4169799;28;20033;-71
2022/01/31 05:42:04;;;;;;;8.27;3.28;;;;;;;1.30;76.70;97581.50;4168164;28;20460;-71
2022/01/31 05:44:04;;;;;;;10.52;3.05;;;;;;;1.23;77.50;97592.97;4169359;28;20047;-71
2022/01/31 05:46:04;;;;;;;8.07;3.35;;;;;;;1.23;77.39;97586.72;4168809;28;20385;-71
2022/01/31 05:48:05;;;;;;;9.30;4.10;;;;;;;1.21;77.97;97586.28;4167994;28;20388;-71
2022/01/31 05:50:06;;;;;;;11.07;2.92;;;;;;;1.16;79.13;97589.19;4169015;28;20035;-71
2022/01/31 05:52:07;;;;;;;13.50;3.67;;;;;;;1.13;80.41;97585.22;4168597;28;20060;-72
2022/01/31 05:54:07;;;;;;;9.20;3.28;;;;;;;1.04;80.98;97574.44;4171062;28;20039;-71
2022/01/31 05:56:08;;;;;;;7.05;3.22;;;;;;;1.02;81.73;97571.25;4172799;28;20029;-71
2022/01/31 05:58:09;;;;;;;12.38;3.67;;;;;;;0.98;83.41;97577.69;4172032;28;20809;-71
2022/01/31 06:00:10;;;;;;;12.68;3.70;;;;;;;0.88;84.89;97570.75;4173140;28;20475;-71
2022/01/31 06:02:11;;;;;;;8.93;3.63;;;;;;;0.82;86.04;97572.09;4173168;28;20048;-71
2022/01/31 06:04:11;;;;;;;7.78;3.90;;;;;;;0.73;87.07;97566.75;4173164;28;20028;-72
2022/01/31 06:06:11;;;;;;;8.90;3.20;;;;;;;0.68;88.03;97556.09;4172940;28;20163;-71
2022/01/31 06:08:12;;;;;;;8.45;3.80;;;;;;;0.58;88.84;97545.63;4171707;28;20037;-71
2022/01/31 06:10:12;;;;;;;7.30;3.20;;;;;;;0.60;90.33;97546.06;4173197;28;20477;-71
2022/01/31 06:12:15;;;;;;;7.85;3.15;;;;;;;0.52;90.46;97539.56;4172323;28;20028;-71
2022/01/31 06:14:16;;;;;;;10.38;3.60;;;;;;;0.47;91.15;97531.63;4172614;28;20041;-71
2022/01/31 06:16:18;;;;;;;7.13;3.33;;;;;;;0.45;90.82;97530.38;4171920;28;20033;-71
2022/01/31 06:18:18;;;;;;;9.20;3.40;;;;;;;0.45;91.32;97527.63;4171058;28;20092;-71
2022/01/31 06:20:19;;;;;;;7.75;3.53;;;;;;;0.41;92.83;97521.25;4172295;28;20040;-71
2022/01/31 06:22:19;;;;;;;7.40;2.90;;;;;;;0.37;92.08;97515.72;4171907;28;20033;-71
2022/01/31 06:24:19;;;;;;;5.80;3.78;;;;;;;0.38;92.26;97511.84;4172714;28;20036;-71
2022/01/31 06:26:21;;;;;;;6.85;3.30;;;;;;;0.39;93.02;97513.44;4171129;28;20051;-71
2022/01/31 06:28:21;;;;;;;6.18;3.53;;;;;;;0.38;91.57;97503.69;4171768;28;20110;-71
2022/01/31 06:30:22;;;;;;;8.98;3.10;;;;;;;0.36;92.97;97500.50;4172704;28;20036;-71
2022/01/31 06:32:25;;;;;;;10.75;4.13;;;;;;;0.37;92.52;97493.16;4172533;28;20033;-71
2022/01/31 06:34:26;;;;;;;6.00;3.17;;;;;;;0.38;92.19;97492.00;4171699;28;20087;-71
2022/01/31 06:36:26;;;;;;;6.13;3.38;;;;;;;0.38;91.83;97481.13;4172056;28;20504;-71
2022/01/31 06:38:28;;;;;;;9.48;3.42;;;;;;;0.38;91.80;97478.41;4171353;28;20212;-71
2022/01/31 06:40:28;;;;;;;6.65;3.08;;;;;;;0.40;92.02;97473.41;4172412;28;20029;-71
2022/01/31 06:42:29;;;;;;;4.72;2.47;;;;;;;0.40;91.54;97455.16;4172433;28;20039;-71
2022/01/31 06:44:29;;;;;;;8.77;3.08;;;;;;;0.49;90.02;97460.50;4172651;28;20434;-71
2022/01/31 06:46:29;;;;;;;5.45;2.80;;;;;;;0.48;91.49;97457.00;4170842;28;20041;-71
2022/01/31 06:48:29;;;;;;;4.68;2.85;;;;;;;0.48;91.44;97454.28;4171419;28;20091;-71
2022/01/31 06:50:30;;;;;;;4.03;2.80;;;;;;;0.49;90.72;97447.69;4172045;28;20085;-71
2022/01/31 06:52:34;;;;;;;3.63;1.95;;;;;;;0.49;90.29;97449.63;4172557;28;20745;-71
2022/01/31 06:54:35;;;;;;;4.68;2.47;;;;;;;0.50;90.12;97441.16;4172027;28;20036;-71
2022/01/31 06:56:39;;;;;;;4.47;2.17;;;;;;;0.50;89.52;97443.06;4171012;28;20043;-71
2022/01/31 06:58:39;;;;;;;3.00;2.20;;;;;;;0.50;91.09;97443.06;4172472;28;20199;-71
2022/01/31 07:00:40;;;;;;;6.85;3.33;;;;;;;0.49;91.71;97439.53;4172098;28;20056;-71
2022/01/31 07:02:40;;;;;;;6.70;3.88;;;;;;;0.49;90.58;97430.56;4172517;28;20124;-71
2022/01/31 07:04:40;;;;;;;8.75;5.07;;;;;;;0.53;92.08;97420.63;4170641;28;20071;-71
2022/01/31 07:06:41;;;;;;;5.80;3.15;;;;;;;0.56;92.27;97430.81;4171073;28;20362;-71
2022/01/31 07:08:41;;;;;;;2.45;1.95;;;;;;;0.52;93.12;97422.53;4172284;28;20588;-71
2022/01/31 07:10:49;;;;;;;4.03;2.05;;;;;;;0.56;91.74;97418.00;4171300;28;20135;-71
2022/01/31 07:12:54;;;;;;;4.32;2.25;;;;;;;0.65;91.40;97407.00;4171943;28;20044;-71
2022/01/31 07:14:54;;;;;;;2.83;1.88;;;;;;;0.62;91.29;97398.72;4171657;28;20087;-71
2022/01/31 07:16:55;;;;;;;4.00;2.20;;;;;;;0.60;92.87;97398.28;4170946;28;20045;-71
2022/01/31 07:19:04;;;;;;;9.20;2.70;;;;;;;0.56;93.69;97398.94;4171960;28;20110;-71
2022/01/31 07:21:05;;;;;;;3.50;2.15;;;;;;;0.62;93.31;97404.97;4171942;28;20040;-71
2022/01/31 07:25:36;;;;;;;2.47;1.88;;;;;;;0.60;94.49;97396.34;4164809;28;20094;-71
2022/01/31 07:27:36;;;;;;;1.42;1.33;;;;;;;0.63;94.27;97389.44;4170625;28;20385;-71
2022/01/31 07:29:38;;;;;;;3.75;1.58;;;;;;;0.67;93.46;97385.69;4171341;28;20025;-71
2022/01/31 07:31:40;;;;;;;2.55;1.50;;;;;;;0.64;95.02;97388.28;4171647;28;20259;-71
2022/01/31 07:33:42;;;;;;;1.73;1.33;;;;;;;0.64;94.87;97388.28;4171887;28;20043;-71
2022/01/31 07:35:45;;;;;;;1.30;1.20;;;;;;;0.65;95.92;97390.66;4171145;28;20032;-71
2022/01/31 07:37:46;;;;;;;1.23;1.13;;;;;;;0.67;95.64;97384.91;4168973;28;20427;-71
2022/01/31 07:39:46;;;;;;;1.35;1.20;;;;;;;0.66;96.17;97381.38;4170186;28;20457;-71
2022/01/31 07:41:48;;;;;;;3.00;1.40;;;;;;;0.69;95.43;97375.25;4169275;28;20444;-71
2022/01/31 07:43:48;;;;;;;2.00;1.35;;;;;;;0.75;96.45;97378.56;4170078;28;20036;-71
2022/01/31 07:45:48;;;;;;;1.42;1.33;;;;;;;0.70;96.45;97371.41;4168932;28;20086;-71
2022/01/31 07:47:49;;;;;;;2.85;1.30;;;;;;;0.76;95.98;97367.31;4169513;28;21170;-71
2022/01/31 07:49:51;;;;;;;2.00;1.30;;;;;;;0.83;94.47;97362.09;4169929;28;20048;-71
2022/01/31 07:51:53;;;;;;;3.00;1.50;;;;;;;0.81;95.80;97353.47;4169945;28;20381;-71
2022/01/31 07:53:53;;;;;;;3.88;1.92;;;;;;;0.76;95.65;97356.44;4169968;28;20071;-71
2022/01/31 07:55:53;;;;;;;1.95;1.40;;;;;;;0.80;95.74;97351.09;4170269;28;20052;-71
2022/01/31 07:57:53;;;;;;;2.90;1.50;;;;;;;0.84;95.72;97343.84;4169197;28;20052;-71
2022/01/31 07:59:54;;;;;;;3.25;1.75;;;;;;;0.87;95.78;97354.03;4170236;28;20465;-71
2022/01/31 08:01:54;;;;;;;2.92;1.60;;;;;;;0.89;96.01;97348.25;4169859;28;20064;-71
2022/01/31 08:03:55;;;;;;;2.90;1.77;;;;;;;0.87;96.36;97351.31;4170643;28;20105;-71
2022/01/31 08:05:55;;;;;;;3.08;2.03;;;;;;;0.89;96.37;97354.47;4170559;28;20032;-71
2022/01/31 08:07:55;;;;;;;4.13;2.22;;;;;;;0.84;97.11;97343.84;4169425;28;20035;-71
2022/01/31 08:09:56;;;;;;;3.15;1.88;;;;;;;0.87;96.56;97343.16;4170111;28;20033;-71
2022/01/31 08:11:56;;;;;;;4.35;2.28;;;;;;;0.84;97.10;97341.13;4169925;28;20036;-71
2022/01/31 08:14:00;;;;;;;2.85;2.15;;;;;;;0.88;96.75;97342.00;4168425;28;20082;-71
2022/01/31 08:16:09;;;;;;;1.30;1.00;;;;;;;0.92;95.54;97342.13;4169624;28;20059;-71
2022/01/31 08:18:09;;;;;;;2.70;1.33;;;;;;;0.98;95.15;97343.47;4169067;28;20025;-71
2022/01/31 08:20:11;;;;;;;1.50;1.13;;;;;;;1.05;94.41;97338.22;4170758;28;20032;-71
2022/01/31 08:22:11;;;;;;;2.60;1.40;;;;;;;1.02;94.43;97345.16;4170408;28;20448;-71
2022/01/31 08:24:12;;;;;;;2.30;1.50;;;;;;;1.04;93.99;97337.44;4169531;28;20251;-71
2022/01/31 08:26:16;;;;;;;1.73;1.30;;;;;;;1.08;92.94;97343.81;4170772;28;20029;-71
2022/01/31 08:28:19;;;;;;;3.08;1.48;;;;;;;1.11;92.89;97345.84;4170244;28;20030;-71
2022/01/31 08:30:24;;;;;;;1.67;1.38;;;;;;;1.22;92.05;97348.06;4170474;28;20493;-71
2022/01/31 08:32:33;;;;;;;1.83;1.50;;;;;;;1.27;91.96;97342.41;4170700;28;20120;-71
2022/01/31 08:36:53;;;;;;;3.40;2.30;;;;;;;1.36;90.98;97346.56;4168408;28;20043;-71
2022/01/31 08:38:54;;;;;;;3.08;2.05;;;;;;;1.36;90.47;97348.50;4171364;28;20480;-71
2022/01/31 08:40:55;;;;;;;2.88;1.83;;;;;;;1.44;90.41;97342.13;4170129;28;20769;-71
2022/01/31 08:42:56;;;;;;;2.88;1.80;;;;;;;1.49;90.21;97343.78;4170240;28;20044;-71
2022/01/31 08:44:56;;;;;;;3.25;2.30;;;;;;;1.54;90.28;97344.34;4170311;28;20039;-71
2022/01/31 08:46:57;;;;;;;3.30;2.17;;;;;;;1.62;89.46;97337.97;4169406;28;20128;-71
2022/01/31 08:48:59;;;;;;;3.08;2.20;;;;;;;1.73;87.78;97342.91;4169734;28;20033;-71
2022/01/31 08:50:59;;;;;;;3.40;2.27;;;;;;;1.82;87.97;97330.72;4169294;28;20094;-71
2022/01/31 08:53:00;;;;;;;4.15;2.60;;;;;;;1.87;87.79;97327.72;4170022;28;20739;-70
2022/01/31 08:55:00;;;;;;;11.45;2.92;;;;;;;1.82;88.04;97325.28;4169689;28;20119;-70
2022/01/31 08:57:01;;;;;;;3.38;2.55;;;;;;;1.81;89.25;97325.59;4168763;28;20090;-71
2022/01/31 08:59:03;;;;;;;6.28;2.65;;;;;;;1.84;89.14;97319.47;4169671;28;20144;-71
2022/01/31 09:01:06;;;;;;;2.75;2.25;;;;;;;1.88;89.11;97318.41;4168998;28;20406;-71
2022/01/31 09:05:11;;;;;;;4.95;2.60;;;;;;;1.99;89.36;97310.53;4169087;28;20075;-71
2022/01/31 09:07:11;;;;;;;3.47;2.60;;;;;;;2.03;88.83;97311.41;4168580;28;20025;-71
2022/01/31 09:09:17;;;;;;;3.50;2.30;;;;;;;2.09;89.34;97309.22;4169477;28;20319;-71
2022/01/31 09:11:17;;;;;;;4.50;2.53;;;;;;;2.14;88.83;97308.94;4169865;28;20037;-72
2022/01/31 09:13:18;;;;;;;5.88;2.53;;;;;;;2.14;88.68;97306.19;4169426;28;20032;-71
2022/01/31 09:15:18;;;;;;;3.03;2.30;;;;;;;2.18;88.45;97309.81;4169493;28;20505;-71
2022/01/31 09:17:19;;;;;;;5.28;2.53;;;;;;;2.25;87.31;97297.16;4168783;28;20412;-71
2022/01/31 09:19:20;;;;;;;4.03;2.65;;;;;;;2.20;88.06;97297.41;4169449;28;20044;-71
2022/01/31 09:21:20;;;;;;;2.97;2.50;;;;;;;2.25;86.91;97301.81;4169126;28;20409;-71
2022/01/31 09:23:21;;;;;;;5.28;2.75;;;;;;;2.22;86.71;97297.84;4169305;28;20051;-71
2022/01/31 09:25:23;;;;;;;3.55;2.47;;;;;;;2.19;87.53;97292.31;4169945;28;20049;-71
2022/01/31 09:27:24;;;;;;;4.75;2.42;;;;;;;2.24;86.83;97298.31;4168199;28;20029;-71
2022/01/31 09:29:24;;;;;;;4.35;2.50;;;;;;;2.20;86.44;97286.50;4172958;28;20742;-71
2022/01/31 09:31:24;;;;;;;3.85;2.08;;;;;;;2.24;86.56;97303.75;4173233;28;20498;-71
2022/01/31 09:33:25;;;;;;;5.72;2.40;;;;;;;2.23;85.62;97302.19;4172742;28;20032;-71
2022/01/31 09:35:26;;;;;;;5.05;2.38;;;;;;;2.28;86.25;97300.31;4172789;28;20397;-71
2022/01/31 09:37:26;;;;;;;3.38;2.20;;;;;;;2.29;86.33;97290.97;4171543;28;20033;-71
2022/01/31 09:39:27;;;;;;;3.05;2.55;;;;;;;2.39;87.07;97310.34;4173009;28;20087;-71
2022/01/31 09:41:29;;;;;;;3.50;2.45;;;;;;;2.43;87.00;97302.25;4172564;28;20036;-71